sensor_id;sensor_type;location;lat;lon;timestamp;P1;durP1;ratioP1;P2;durP2;ratioP2
52796;SDS011;38666;43.348;12.584;2022-12-18T06:54:45;3.83;;;2.03;;
52796;SDS011;38666;43.348;12.584;2022-12-18T06:57:10;6.27;;;2.53;;
52796;SDS011;38666;43.348;12.584;2022-12-18T06:59:36;5.30;;;2.20;;
52796;SDS011;38666;43.348;12.584;2022-12-18T07:02:01;4.90;;;2.10;;
52796;SDS011;38666;43.348;12.584;2022-12-18T07:04:30;3.93;;;1.77;;
52796;SDS011;38666;43.348;12.584;2022-12-18T07:06:56;4.38;;;2.00;;
52796;SDS011;38666;43.348;12.584;2022-12-18T07:09:22;5.37;;;2.10;;
52796;SDS011;38666;43.348;12.584;2022-12-18T07:11:48;4.00;;;1.97;;
52796;SDS011;38666;43.348;12.584;2022-12-18T07:14:13;5.17;;;2.00;;
52796;SDS011;38666;43.348;12.584;2022-12-18T07:16:39;4.90;;;2.47;;
52796;SDS011;38666;43.348;12.584;2022-12-18T07:19:05;5.60;;;2.77;;
52796;SDS011;38666;43.348;12.584;2022-12-18T07:21:31;4.43;;;2.00;;
52796;SDS011;38666;43.348;12.584;2022-12-18T07:23:56;5.10;;;1.70;;
52796;SDS011;38666;43.348;12.584;2022-12-18T07:26:22;3.13;;;1.70;;
52796;SDS011;38666;43.348;12.584;2022-12-18T07:28:48;3.85;;;1.70;;
52796;SDS011;38666;43.348;12.584;2022-12-18T07:31:19;4.40;;;1.92;;
52796;SDS011;38666;43.348;12.584;2022-12-18T07:33:45;7.80;;;2.00;;
52796;SDS011;38666;43.348;12.584;2022-12-18T07:36:11;5.97;;;1.80;;
52796;SDS011;38666;43.348;12.584;2022-12-18T07:38:37;3.10;;;1.50;;
52796;SDS011;38666;43.348;12.584;2022-12-18T07:41:04;4.00;;;1.53;;
52796;SDS011;38666;43.348;12.584;2022-12-18T07:43:39;4.25;;;1.63;;
52796;SDS011;38666;43.348;12.584;2022-12-18T07:46:06;3.10;;;1.33;;
52796;SDS011;38666;43.348;12.584;2022-12-18T07:48:32;3.75;;;1.20;;
52796;SDS011;38666;43.348;12.584;2022-12-18T07:51:01;2.70;;;1.30;;
52796;SDS011;38666;43.348;12.584;2022-12-18T07:53:28;3.35;;;1.30;;
52796;SDS011;38666;43.348;12.584;2022-12-18T07:56:00;2.92;;;1.27;;
52796;SDS011;38666;43.348;12.584;2022-12-18T07:58:29;3.30;;;1.30;;
52796;SDS011;38666;43.348;12.584;2022-12-18T08:01:01;3.00;;;1.23;;
52796;SDS011;38666;43.348;12.584;2022-12-18T08:03:37;5.90;;;1.40;;
52796;SDS011;38666;43.348;12.584;2022-12-18T08:06:04;2.58;;;1.23;;
52796;SDS011;38666;43.348;12.584;2022-12-18T08:08:31;2.80;;;1.10;;
52796;SDS011;38666;43.348;12.584;2022-12-18T08:10:57;3.10;;;1.40;;
52796;SDS011;38666;43.348;12.584;2022-12-18T08:13:23;2.73;;;1.33;;
52796;SDS011;38666;43.348;12.584;2022-12-18T08:16:02;3.25;;;1.42;;
52796;SDS011;38666;43.348;12.584;2022-12-18T08:18:32;3.40;;;1.60;;
52796;SDS011;38666;43.348;12.584;2022-12-18T08:21:07;7.10;;;2.80;;
52796;SDS011;38666;43.348;12.584;2022-12-18T08:23:36;4.35;;;1.70;;
52796;SDS011;38666;43.348;12.584;2022-12-18T08:26:02;2.83;;;1.30;;
52796;SDS011;38666;43.348;12.584;2022-12-18T08:28:28;3.05;;;1.30;;
52796;SDS011;38666;43.348;12.584;2022-12-18T08:30:53;4.03;;;1.70;;
52796;SDS011;38666;43.348;12.584;2022-12-18T08:33:19;3.97;;;1.50;;
52796;SDS011;38666;43.348;12.584;2022-12-18T08:35:44;3.30;;;1.20;;
52796;SDS011;38666;43.348;12.584;2022-12-18T08:38:09;3.80;;;1.13;;
52796;SDS011;38666;43.348;12.584;2022-12-18T08:40:35;3.47;;;1.40;;
52796;SDS011;38666;43.348;12.584;2022-12-18T08:43:00;3.33;;;1.50;;
52796;SDS011;38666;43.348;12.584;2022-12-18T08:45:44;7.18;;;2.05;;
52796;SDS011;38666;43.348;12.584;2022-12-18T08:48:10;3.83;;;1.73;;
52796;SDS011;38666;43.348;12.584;2022-12-18T08:50:35;5.70;;;1.90;;
52796;SDS011;38666;43.348;12.584;2022-12-18T08:53:01;4.32;;;2.00;;
52796;SDS011;38666;43.348;12.584;2022-12-18T08:55:26;5.10;;;2.10;;
52796;SDS011;38666;43.348;12.584;2022-12-18T08:57:52;4.33;;;1.90;;
52796;SDS011;38666;43.348;12.584;2022-12-18T09:00:17;3.47;;;1.67;;
52796;SDS011;38666;43.348;12.584;2022-12-18T09:02:43;6.93;;;1.92;;
52796;SDS011;38666;43.348;12.584;2022-12-18T09:05:08;4.17;;;1.83;;
52796;SDS011;38666;43.348;12.584;2022-12-18T09:07:34;7.43;;;2.28;;
52796;SDS011;38666;43.348;12.584;2022-12-18T09:10:00;6.57;;;1.93;;
52796;SDS011;38666;43.348;12.584;2022-12-18T09:12:25;5.63;;;2.13;;
52796;SDS011;38666;43.348;12.584;2022-12-18T09:14:51;4.23;;;2.00;;
52796;SDS011;38666;43.348;12.584;2022-12-18T09:17:16;9.57;;;2.23;;
52796;SDS011;38666;43.348;12.584;2022-12-18T09:19:42;5.25;;;1.77;;
52796;SDS011;38666;43.348;12.584;2022-12-18T09:22:08;5.07;;;1.98;;
52796;SDS011;38666;43.348;12.584;2022-12-18T09:24:34;8.40;;;1.80;;
52796;SDS011;38666;43.348;12.584;2022-12-18T09:27:00;7.37;;;1.80;;
52796;SDS011;38666;43.348;12.584;2022-12-18T09:29:25;3.88;;;1.73;;
52796;SDS011;38666;43.348;12.584;2022-12-18T09:31:51;7.80;;;2.22;;
52796;SDS011;38666;43.348;12.584;2022-12-18T09:34:16;7.22;;;2.03;;
52796;SDS011;38666;43.348;12.584;2022-12-18T09:36:42;8.60;;;2.90;;
52796;SDS011;38666;43.348;12.584;2022-12-18T09:39:08;10.45;;;2.35;;
52796;SDS011;38666;43.348;12.584;2022-12-18T09:44:09;9.80;;;4.22;;
52796;SDS011;38666;43.348;12.584;2022-12-18T09:47:24;6.25;;;2.42;;
52796;SDS011;38666;43.348;12.584;2022-12-18T09:49:47;3.20;;;1.33;;
52796;SDS011;38666;43.348;12.584;2022-12-18T09:52:39;3.00;;;1.17;;
52796;SDS011;38666;43.348;12.584;2022-12-18T09:57:57;5.10;;;1.10;;
52796;SDS011;38666;43.348;12.584;2022-12-18T10:00:27;7.38;;;1.20;;
52796;SDS011;38666;43.348;12.584;2022-12-18T10:02:56;5.73;;;2.37;;
52796;SDS011;38666;43.348;12.584;2022-12-18T10:05:48;6.90;;;1.40;;
52796;SDS011;38666;43.348;12.584;2022-12-18T10:08:32;3.58;;;1.75;;
52796;SDS011;38666;43.348;12.584;2022-12-18T10:13:52;3.28;;;1.60;;
52796;SDS011;38666;43.348;12.584;2022-12-18T10:16:32;6.43;;;1.77;;
52796;SDS011;38666;43.348;12.584;2022-12-18T10:19:17;5.47;;;1.60;;
52796;SDS011;38666;43.348;12.584;2022-12-18T10:27:21;3.88;;;2.00;;
52796;SDS011;38666;43.348;12.584;2022-12-18T10:29:49;4.70;;;2.20;;
52796;SDS011;38666;43.348;12.584;2022-12-18T10:32:28;3.77;;;1.90;;
52796;SDS011;38666;43.348;12.584;2022-12-18T10:34:56;5.20;;;1.73;;
52796;SDS011;38666;43.348;12.584;2022-12-18T10:37:26;3.38;;;1.77;;
52796;SDS011;38666;43.348;12.584;2022-12-18T10:40:07;4.85;;;1.85;;
52796;SDS011;38666;43.348;12.584;2022-12-18T10:42:36;5.88;;;3.15;;
52796;SDS011;38666;43.348;12.584;2022-12-18T10:45:09;7.88;;;2.50;;
52796;SDS011;38666;43.348;12.584;2022-12-18T10:47:37;6.78;;;2.97;;
52796;SDS011;38666;43.348;12.584;2022-12-18T10:50:17;3.92;;;1.80;;
52796;SDS011;38666;43.348;12.584;2022-12-18T10:52:51;6.32;;;2.42;;
52796;SDS011;38666;43.348;12.584;2022-12-18T10:55:19;5.15;;;2.30;;
52796;SDS011;38666;43.348;12.584;2022-12-18T10:57:45;5.47;;;2.13;;
52796;SDS011;38666;43.348;12.584;2022-12-18T11:00:24;4.47;;;1.90;;
52796;SDS011;38666;43.348;12.584;2022-12-18T11:02:54;7.00;;;2.60;;
52796;SDS011;38666;43.348;12.584;2022-12-18T11:07:52;10.98;;;2.33;;
52796;SDS011;38666;43.348;12.584;2022-12-18T11:10:24;8.32;;;1.80;;
52796;SDS011;38666;43.348;12.584;2022-12-18T11:12:53;6.18;;;2.03;;
52796;SDS011;38666;43.348;12.584;2022-12-18T11:15:20;3.13;;;1.38;;
52796;SDS011;38666;43.348;12.584;2022-12-18T11:17:54;3.72;;;1.77;;
52796;SDS011;38666;43.348;12.584;2022-12-18T11:22:55;3.67;;;1.70;;
52796;SDS011;38666;43.348;12.584;2022-12-18T11:25:36;4.88;;;1.33;;
52796;SDS011;38666;43.348;12.584;2022-12-18T11:28:03;5.20;;;2.53;;
52796;SDS011;38666;43.348;12.584;2022-12-18T11:30:32;2.60;;;1.30;;
52796;SDS011;38666;43.348;12.584;2022-12-18T11:35:51;4.07;;;1.43;;
52796;SDS011;38666;43.348;12.584;2022-12-18T11:38:22;8.32;;;3.30;;
52796;SDS011;38666;43.348;12.584;2022-12-18T11:41:15;11.60;;;4.25;;
52796;SDS011;38666;43.348;12.584;2022-12-18T11:46:26;3.10;;;1.38;;
52796;SDS011;38666;43.348;12.584;2022-12-18T11:54:29;3.45;;;1.40;;
52796;SDS011;38666;43.348;12.584;2022-12-18T11:57:00;2.30;;;1.10;;
52796;SDS011;38666;43.348;12.584;2022-12-18T12:08:15;7.32;;;3.13;;
52796;SDS011;38666;43.348;12.584;2022-12-18T12:21:42;3.20;;;1.50;;
52796;SDS011;38666;43.348;12.584;2022-12-18T12:27:10;2.50;;;1.10;;
52796;SDS011;38666;43.348;12.584;2022-12-18T12:30:41;5.63;;;2.40;;
52796;SDS011;38666;43.348;12.584;2022-12-18T12:32:50;3.30;;;1.10;;
52796;SDS011;38666;43.348;12.584;2022-12-18T12:40:42;4.18;;;1.33;;
52796;SDS011;38666;43.348;12.584;2022-12-18T12:45:52;6.18;;;2.75;;
52796;SDS011;38666;43.348;12.584;2022-12-18T12:48:37;3.80;;;1.50;;
52796;SDS011;38666;43.348;12.584;2022-12-18T12:53:44;3.88;;;1.73;;
52796;SDS011;38666;43.348;12.584;2022-12-18T12:56:11;3.22;;;1.40;;
52796;SDS011;38666;43.348;12.584;2022-12-18T12:58:48;2.30;;;1.00;;
52796;SDS011;38666;43.348;12.584;2022-12-18T13:04:12;6.25;;;1.40;;
52796;SDS011;38666;43.348;12.584;2022-12-18T13:06:43;8.68;;;3.85;;
52796;SDS011;38666;43.348;12.584;2022-12-18T13:09:11;2.88;;;1.10;;
52796;SDS011;38666;43.348;12.584;2022-12-18T13:11:42;2.63;;;1.10;;
52796;SDS011;38666;43.348;12.584;2022-12-18T13:14:29;6.03;;;2.50;;
52796;SDS011;38666;43.348;12.584;2022-12-18T13:22:40;3.03;;;1.30;;
52796;SDS011;38666;43.348;12.584;2022-12-18T13:35:40;5.83;;;3.27;;
52796;SDS011;38666;43.348;12.584;2022-12-18T13:41:41;4.82;;;1.90;;
52796;SDS011;38666;43.348;12.584;2022-12-18T13:43:53;4.05;;;1.33;;
52796;SDS011;38666;43.348;12.584;2022-12-18T13:46:24;4.90;;;1.90;;
52796;SDS011;38666;43.348;12.584;2022-12-18T13:51:40;4.73;;;2.30;;
52796;SDS011;38666;43.348;12.584;2022-12-18T13:56:51;3.45;;;1.70;;
52796;SDS011;38666;43.348;12.584;2022-12-18T13:59:22;4.57;;;1.50;;
52796;SDS011;38666;43.348;12.584;2022-12-18T14:01:58;3.00;;;1.17;;
52796;SDS011;38666;43.348;12.584;2022-12-18T14:07:18;4.18;;;1.35;;
52796;SDS011;38666;43.348;12.584;2022-12-18T14:09:44;5.18;;;1.80;;
52796;SDS011;38666;43.348;12.584;2022-12-18T14:12:17;8.32;;;1.80;;
52796;SDS011;38666;43.348;12.584;2022-12-18T14:15:05;4.70;;;1.52;;
52796;SDS011;38666;43.348;12.584;2022-12-18T14:17:40;4.60;;;1.30;;
52796;SDS011;38666;43.348;12.584;2022-12-18T14:20:12;3.07;;;1.30;;
52796;SDS011;38666;43.348;12.584;2022-12-18T14:22:42;4.53;;;1.70;;
52796;SDS011;38666;43.348;12.584;2022-12-18T14:25:14;3.60;;;1.60;;
52796;SDS011;38666;43.348;12.584;2022-12-18T14:30:42;3.77;;;1.83;;
52796;SDS011;38666;43.348;12.584;2022-12-18T14:33:13;4.38;;;2.10;;
52796;SDS011;38666;43.348;12.584;2022-12-18T14:38:29;7.10;;;1.60;;
52796;SDS011;38666;43.348;12.584;2022-12-18T14:43:33;4.03;;;1.50;;
52796;SDS011;38666;43.348;12.584;2022-12-18T14:46:01;3.83;;;1.60;;
52796;SDS011;38666;43.348;12.584;2022-12-18T14:51:01;7.70;;;2.00;;
52796;SDS011;38666;43.348;12.584;2022-12-18T14:56:01;4.93;;;1.83;;
52796;SDS011;38666;43.348;12.584;2022-12-18T14:58:28;14.93;;;2.40;;
52796;SDS011;38666;43.348;12.584;2022-12-18T15:00:54;11.13;;;4.33;;
52796;SDS011;38666;43.348;12.584;2022-12-18T15:03:20;8.45;;;2.80;;
52796;SDS011;38666;43.348;12.584;2022-12-18T15:05:46;8.10;;;3.33;;
52796;SDS011;38666;43.348;12.584;2022-12-18T15:08:34;5.15;;;2.30;;
52796;SDS011;38666;43.348;12.584;2022-12-18T15:11:01;10.95;;;3.33;;
52796;SDS011;38666;43.348;12.584;2022-12-18T15:13:27;6.32;;;2.58;;
52796;SDS011;38666;43.348;12.584;2022-12-18T15:15:54;7.13;;;2.97;;
52796;SDS011;38666;43.348;12.584;2022-12-18T15:18:41;6.85;;;2.80;;
52796;SDS011;38666;43.348;12.584;2022-12-18T15:21:08;13.95;;;6.90;;
52796;SDS011;38666;43.348;12.584;2022-12-18T15:23:36;5.55;;;2.75;;
52796;SDS011;38666;43.348;12.584;2022-12-18T15:26:11;9.10;;;4.57;;
52796;SDS011;38666;43.348;12.584;2022-12-18T15:36:17;8.43;;;3.80;;
52796;SDS011;38666;43.348;12.584;2022-12-18T15:38:46;14.17;;;4.47;;
52796;SDS011;38666;43.348;12.584;2022-12-18T15:41:13;10.10;;;3.65;;
52796;SDS011;38666;43.348;12.584;2022-12-18T15:43:39;8.30;;;3.87;;
52796;SDS011;38666;43.348;12.584;2022-12-18T15:48:42;9.63;;;4.13;;
52796;SDS011;38666;43.348;12.584;2022-12-18T15:51:16;10.67;;;3.70;;
52796;SDS011;38666;43.348;12.584;2022-12-18T15:53:45;13.63;;;4.43;;
52796;SDS011;38666;43.348;12.584;2022-12-18T15:56:12;13.95;;;7.03;;
52796;SDS011;38666;43.348;12.584;2022-12-18T15:58:58;10.40;;;5.13;;
52796;SDS011;38666;43.348;12.584;2022-12-18T16:01:25;12.60;;;4.73;;
52796;SDS011;38666;43.348;12.584;2022-12-18T16:03:52;10.15;;;4.70;;
52796;SDS011;38666;43.348;12.584;2022-12-18T16:06:19;14.10;;;5.78;;
52796;SDS011;38666;43.348;12.584;2022-12-18T16:08:45;10.33;;;3.93;;
52796;SDS011;38666;43.348;12.584;2022-12-18T16:11:29;11.97;;;5.00;;
52796;SDS011;38666;43.348;12.584;2022-12-18T16:14:25;8.43;;;4.30;;
52796;SDS011;38666;43.348;12.584;2022-12-18T16:16:57;9.15;;;4.70;;
52796;SDS011;38666;43.348;12.584;2022-12-18T16:19:24;12.55;;;5.20;;
52796;SDS011;38666;43.348;12.584;2022-12-18T16:21:51;14.32;;;5.20;;
52796;SDS011;38666;43.348;12.584;2022-12-18T16:24:21;9.60;;;4.03;;
52796;SDS011;38666;43.348;12.584;2022-12-18T16:26:51;11.65;;;4.55;;
52796;SDS011;38666;43.348;12.584;2022-12-18T16:29:18;12.13;;;5.22;;
52796;SDS011;38666;43.348;12.584;2022-12-18T16:31:44;8.37;;;3.60;;
52796;SDS011;38666;43.348;12.584;2022-12-18T16:34:13;10.03;;;4.33;;
52796;SDS011;38666;43.348;12.584;2022-12-18T16:36:46;14.43;;;4.47;;
52796;SDS011;38666;43.348;12.584;2022-12-18T16:39:12;12.67;;;5.50;;
52796;SDS011;38666;43.348;12.584;2022-12-18T16:41:37;14.97;;;6.37;;
52796;SDS011;38666;43.348;12.584;2022-12-18T16:44:02;12.00;;;5.10;;
52796;SDS011;38666;43.348;12.584;2022-12-18T16:46:28;16.47;;;8.80;;
52796;SDS011;38666;43.348;12.584;2022-12-18T16:48:56;13.00;;;6.25;;
52796;SDS011;38666;43.348;12.584;2022-12-18T16:51:23;16.33;;;6.33;;
52796;SDS011;38666;43.348;12.584;2022-12-18T16:53:49;24.63;;;10.83;;
52796;SDS011;38666;43.348;12.584;2022-12-18T16:56:14;29.20;;;13.13;;
52796;SDS011;38666;43.348;12.584;2022-12-18T16:58:40;19.53;;;8.27;;
52796;SDS011;38666;43.348;12.584;2022-12-18T17:01:11;15.98;;;7.55;;
52796;SDS011;38666;43.348;12.584;2022-12-18T17:03:37;17.05;;;5.03;;
52796;SDS011;38666;43.348;12.584;2022-12-18T17:06:05;9.07;;;5.07;;
52796;SDS011;38666;43.348;12.584;2022-12-18T17:08:31;10.57;;;5.28;;
52796;SDS011;38666;43.348;12.584;2022-12-18T17:11:02;9.43;;;4.77;;
52796;SDS011;38666;43.348;12.584;2022-12-18T17:13:30;15.23;;;5.65;;
52796;SDS011;38666;43.348;12.584;2022-12-18T17:16:00;12.43;;;5.18;;
52796;SDS011;38666;43.348;12.584;2022-12-18T17:18:27;8.93;;;4.35;;
52796;SDS011;38666;43.348;12.584;2022-12-18T17:20:57;13.73;;;4.90;;
52796;SDS011;38666;43.348;12.584;2022-12-18T17:23:24;7.80;;;3.88;;
52796;SDS011;38666;43.348;12.584;2022-12-18T17:25:49;9.80;;;4.72;;
52796;SDS011;38666;43.348;12.584;2022-12-18T17:28:19;12.70;;;5.85;;
52796;SDS011;38666;43.348;12.584;2022-12-18T17:30:46;15.02;;;6.60;;
52796;SDS011;38666;43.348;12.584;2022-12-18T17:33:11;11.30;;;5.10;;
52796;SDS011;38666;43.348;12.584;2022-12-18T17:35:37;9.70;;;4.57;;
52796;SDS011;38666;43.348;12.584;2022-12-18T17:38:02;11.50;;;4.18;;
52796;SDS011;38666;43.348;12.584;2022-12-18T17:40:28;11.77;;;4.30;;
52796;SDS011;38666;43.348;12.584;2022-12-18T17:42:53;10.63;;;4.40;;
52796;SDS011;38666;43.348;12.584;2022-12-18T17:45:18;12.23;;;4.67;;
52796;SDS011;38666;43.348;12.584;2022-12-18T17:47:44;9.85;;;4.60;;
52796;SDS011;38666;43.348;12.584;2022-12-18T17:50:10;16.47;;;6.37;;
52796;SDS011;38666;43.348;12.584;2022-12-18T17:52:35;11.77;;;5.50;;
52796;SDS011;38666;43.348;12.584;2022-12-18T17:55:01;11.30;;;5.88;;
52796;SDS011;38666;43.348;12.584;2022-12-18T17:57:26;9.53;;;5.20;;
52796;SDS011;38666;43.348;12.584;2022-12-18T17:59:52;12.30;;;5.05;;
52796;SDS011;38666;43.348;12.584;2022-12-18T18:02:17;11.30;;;4.60;;
52796;SDS011;38666;43.348;12.584;2022-12-18T18:04:43;12.93;;;4.90;;
52796;SDS011;38666;43.348;12.584;2022-12-18T18:07:08;17.43;;;6.10;;
52796;SDS011;38666;43.348;12.584;2022-12-18T18:09:34;13.98;;;6.70;;
52796;SDS011;38666;43.348;12.584;2022-12-18T18:11:59;13.87;;;6.10;;
52796;SDS011;38666;43.348;12.584;2022-12-18T18:14:43;13.15;;;4.80;;
52796;SDS011;38666;43.348;12.584;2022-12-18T18:17:08;15.43;;;7.17;;
52796;SDS011;38666;43.348;12.584;2022-12-18T18:19:34;20.83;;;9.40;;
52796;SDS011;38666;43.348;12.584;2022-12-18T18:21:59;15.50;;;7.13;;
52796;SDS011;38666;43.348;12.584;2022-12-18T18:24:25;26.17;;;11.55;;
52796;SDS011;38666;43.348;12.584;2022-12-18T18:26:51;12.77;;;6.13;;
52796;SDS011;38666;43.348;12.584;2022-12-18T18:29:21;33.15;;;10.80;;
52796;SDS011;38666;43.348;12.584;2022-12-18T18:31:49;32.80;;;10.48;;
52796;SDS011;38666;43.348;12.584;2022-12-18T18:34:15;15.00;;;6.97;;
52796;SDS011;38666;43.348;12.584;2022-12-18T18:36:42;26.53;;;10.77;;
52796;SDS011;38666;43.348;12.584;2022-12-18T18:39:10;50.22;;;18.88;;
52796;SDS011;38666;43.348;12.584;2022-12-18T18:41:35;44.33;;;16.45;;
52796;SDS011;38666;43.348;12.584;2022-12-18T18:44:01;50.77;;;16.43;;
52796;SDS011;38666;43.348;12.584;2022-12-18T18:46:26;73.65;;;22.77;;
52796;SDS011;38666;43.348;12.584;2022-12-18T18:48:52;133.83;;;40.00;;
52796;SDS011;38666;43.348;12.584;2022-12-18T18:51:18;73.07;;;23.65;;
